Time;durP1;ratioP1;P1;durP2;ratioP2;P2;SDS_P1;SDS_P2;PMS_P1;PMS_P2;Temp;Humidity;BMP_temperature;BMP_pressure;BME280_temperature;BME280_humidity;BME280_pressure;Samples;Min_cycle;Max_cycle;Signal;HPM_P1;HPM_P2
2024/01/06 00:01:47;;;;;;;15.60;11.43;;;3.00;99.90;;;;;;5064719;28;20049;-49
2024/01/06 00:04:13;;;;;;;15.15;11.30;;;2.90;99.90;;;;;;5062611;28;20525;-50
2024/01/06 00:06:39;;;;;;;14.93;11.73;;;3.00;99.90;;;;;;5060745;28;20518;-51
2024/01/06 00:09:05;;;;;;;14.70;11.45;;;2.90;99.90;;;;;;5049893;28;20105;-48
2024/01/06 00:11:30;;;;;;;15.45;11.32;;;2.90;99.90;;;;;;5049843;28;20436;-50
2024/01/06 00:13:56;;;;;;;12.50;10.82;;;3.00;99.90;;;;;;5068184;28;20050;-48
2024/01/06 00:16:22;;;;;;;11.63;9.38;;;3.00;99.90;;;;;;5056721;28;20063;-48
2024/01/06 00:18:48;;;;;;;12.90;10.30;;;2.90;99.90;;;;;;5044365;28;20074;-48
2024/01/06 00:21:14;;;;;;;12.45;10.63;;;3.00;99.90;;;;;;5062203;28;20548;-49
2024/01/06 00:23:43;;;;;;;16.67;12.68;;;3.00;99.90;;;;;;5062306;28;20048;-50
2024/01/06 00:26:10;;;;;;;;;;;2.90;99.90;;;;;;5068339;28;20044;-50
2024/01/06 00:28:35;;;;;;;13.30;10.50;;;2.90;99.90;;;;;;5072590;28;20077;-47
2024/01/06 00:31:01;;;;;;;13.45;10.45;;;2.90;99.90;;;;;;5062888;28;20149;-48
2024/01/06 00:33:27;;;;;;;11.98;9.77;;;2.80;99.90;;;;;;5062347;28;20041;-48
2024/01/06 00:35:54;;;;;;;13.48;9.68;;;3.00;99.90;;;;;;5061083;28;20049;-47
2024/01/06 00:38:20;;;;;;;13.30;9.70;;;2.90;99.90;;;;;;5061739;28;20041;-48
2024/01/06 00:40:46;;;;;;;10.88;9.13;;;2.80;99.90;;;;;;5061871;28;20093;-48
2024/01/06 00:43:12;;;;;;;13.90;9.52;;;2.80;99.90;;;;;;5066444;28;20028;-50
2024/01/06 00:45:38;;;;;;;13.30;9.75;;;2.90;99.90;;;;;;5064487;28;20507;-48
2024/01/06 00:48:04;;;;;;;16.15;10.75;;;2.90;99.90;;;;;;5062605;28;20029;-48
2024/01/06 00:50:30;;;;;;;15.77;10.02;;;2.80;99.90;;;;;;5060581;28;20507;-50
2024/01/06 00:52:55;;;;;;;14.85;10.73;;;2.80;99.90;;;;;;5063756;28;20079;-52
2024/01/06 00:55:22;;;;;;;15.63;11.00;;;2.80;99.90;;;;;;5060328;28;20051;-49
2024/01/06 00:57:48;;;;;;;16.30;10.98;;;2.90;99.90;;;;;;5061354;28;20406;-50
2024/01/06 01:00:15;;;;;;;12.95;10.52;;;2.90;99.90;;;;;;5061646;28;20037;-47
2024/01/06 01:02:40;;;;;;;14.02;10.25;;;2.80;99.90;;;;;;5056834;28;20055;-48
2024/01/06 01:05:09;;;;;;;14.77;11.02;;;2.90;99.90;;;;;;5062516;28;20040;-47
2024/01/06 01:07:36;;;;;;;14.20;10.27;;;2.90;99.90;;;;;;5061939;28;20078;-48
2024/01/06 01:10:02;;;;;;;14.57;9.85;;;2.90;99.90;;;;;;5061697;28;20504;-48
2024/01/06 01:12:27;;;;;;;16.50;10.73;;;2.80;99.90;;;;;;5062754;28;20102;-47
2024/01/06 01:14:53;;;;;;;13.68;9.73;;;2.70;99.90;;;;;;5062061;28;20502;-48
2024/01/06 01:17:19;;;;;;;12.30;10.10;;;2.80;99.90;;;;;;5062415;28;20542;-50
2024/01/06 01:19:45;;;;;;;13.88;10.63;;;2.80;99.90;;;;;;5046206;28;20129;-53
2024/01/06 01:22:11;;;;;;;14.82;9.75;;;2.70;99.90;;;;;;5061951;28;20040;-50
2024/01/06 01:24:42;;;;;;;12.63;9.68;;;2.60;99.90;;;;;;5062066;28;20032;-51
2024/01/06 01:27:08;;;;;;;12.35;9.25;;;2.60;99.90;;;;;;5060043;28;20032;-48
2024/01/06 01:29:33;;;;;;;13.13;9.50;;;2.70;99.90;;;;;;5061835;28;20040;-47
2024/01/06 01:31:59;;;;;;;11.10;9.52;;;2.70;99.90;;;;;;5061509;28;20808;-48
2024/01/06 01:34:25;;;;;;;12.70;9.00;;;2.80;99.90;;;;;;5061394;28;20423;-48
2024/01/06 01:36:50;;;;;;;13.55;9.85;;;2.80;99.90;;;;;;5055782;28;20144;-47
2024/01/06 01:39:17;;;;;;;12.48;8.65;;;2.70;99.90;;;;;;5060394;28;20037;-48
2024/01/06 01:41:43;;;;;;;12.25;9.15;;;2.60;99.90;;;;;;5062181;28;20037;-51
2024/01/06 01:44:08;;;;;;;12.13;9.45;;;2.70;99.90;;;;;;5060316;28;20384;-49
2024/01/06 01:46:34;;;;;;;12.55;9.50;;;2.60;99.90;;;;;;5068804;28;20070;-50
2024/01/06 01:49:01;;;;;;;11.77;9.25;;;2.60;99.90;;;;;;5067452;28;20044;-48
2024/01/06 01:51:32;;;;;;;12.38;9.27;;;2.60;99.90;;;;;;5059628;28;20586;-47
2024/01/06 01:54:00;;;;;;;12.50;9.27;;;2.60;99.90;;;;;;5065722;28;20044;-48
2024/01/06 01:56:27;;;;;;;14.17;9.47;;;2.60;99.90;;;;;;5068163;28;20040;-50
2024/01/06 01:58:53;;;;;;;13.35;8.88;;;2.60;99.90;;;;;;5055600;28;20101;-50
2024/01/06 02:01:19;;;;;;;12.18;8.70;;;2.60;99.90;;;;;;5063289;28;20047;-50
2024/01/06 02:03:45;;;;;;;12.85;8.77;;;2.60;99.90;;;;;;5065128;28;20498;-48
2024/01/06 02:06:12;;;;;;;11.70;8.90;;;2.60;99.90;;;;;;5061671;28;20513;-49
2024/01/06 02:08:38;;;;;;;12.77;9.10;;;2.60;99.90;;;;;;5059565;28;20530;-48
2024/01/06 02:11:04;;;;;;;12.73;9.10;;;2.70;99.90;;;;;;5064983;28;20040;-49
2024/01/06 02:13:35;;;;;;;13.57;9.07;;;2.70;99.90;;;;;;5065567;28;20051;-51
2024/01/06 02:16:02;;;;;;;15.30;9.98;;;2.70;99.90;;;;;;5067728;28;20071;-50
2024/01/06 02:18:27;;;;;;;14.40;9.52;;;2.70;99.90;;;;;;5047394;28;20102;-48
2024/01/06 02:20:57;;;;;;;11.93;9.18;;;2.60;99.90;;;;;;5062530;28;20499;-48
2024/01/06 02:23:23;;;;;;;11.13;8.85;;;2.60;99.90;;;;;;5065312;28;20571;-48
2024/01/06 02:25:48;;;;;;;13.85;8.95;;;2.60;99.90;;;;;;5056839;28;20036;-50
2024/01/06 02:28:14;;;;;;;11.45;9.02;;;2.60;99.90;;;;;;5063909;28;20497;-50
2024/01/06 02:30:40;;;;;;;13.35;9.10;;;2.60;99.90;;;;;;5064630;28;20052;-49
2024/01/06 02:33:05;;;;;;;10.93;8.30;;;2.50;99.90;;;;;;5063330;28;20403;-50
2024/01/06 02:35:31;;;;;;;13.18;9.60;;;2.50;99.90;;;;;;5067135;28;20059;-49
2024/01/06 02:37:57;;;;;;;13.65;8.95;;;2.50;99.90;;;;;;5070899;28;20078;-50
2024/01/06 02:40:23;;;;;;;14.23;9.73;;;2.50;99.90;;;;;;5046754;28;20095;-50
2024/01/06 02:42:48;;;;;;;11.43;8.98;;;2.50;99.90;;;;;;5064540;28;20687;-51
2024/01/06 02:45:14;;;;;;;16.75;9.52;;;2.40;99.90;;;;;;5064959;28;20043;-50
2024/01/06 02:47:40;;;;;;;13.40;10.13;;;2.40;99.90;;;;;;5064042;28;20072;-47
2024/01/06 02:50:06;;;;;;;13.88;8.88;;;2.30;99.90;;;;;;5064748;28;20040;-49
2024/01/06 02:52:32;;;;;;;13.63;9.05;;;2.40;99.90;;;;;;5065977;28;20043;-49
2024/01/06 02:54:57;;;;;;;13.57;9.02;;;2.20;99.90;;;;;;5065339;28;20048;-48
2024/01/06 02:57:23;;;;;;;11.02;8.65;;;2.20;99.90;;;;;;5062357;28;20037;-52
2024/01/06 02:59:49;;;;;;;11.60;8.95;;;2.30;99.90;;;;;;5061200;28;20587;-51
2024/01/06 03:02:15;;;;;;;11.25;8.10;;;2.30;99.90;;;;;;5063885;28;20047;-52
2024/01/06 03:04:40;;;;;;;10.77;8.38;;;2.30;99.90;;;;;;5063830;28;20040;-48
2024/01/06 03:07:06;;;;;;;11.98;8.18;;;2.30;99.90;;;;;;5065536;28;20024;-49
2024/01/06 03:09:32;;;;;;;12.30;9.30;;;2.30;99.90;;;;;;5061435;28;20510;-48
2024/01/06 03:11:58;;;;;;;13.55;8.48;;;2.20;99.90;;;;;;5043359;28;20094;-48
2024/01/06 03:14:23;;;;;;;11.40;8.95;;;2.30;99.90;;;;;;5062589;28;20403;-48
2024/01/06 03:16:49;;;;;;;13.55;9.25;;;2.20;99.90;;;;;;5064349;28;20044;-49
2024/01/06 03:19:15;;;;;;;15.15;8.93;;;2.20;99.90;;;;;;5069804;28;20046;-50
2024/01/06 03:21:40;;;;;;;12.85;8.98;;;2.30;99.90;;;;;;5064257;28;20490;-48
2024/01/06 03:24:07;;;;;;;14.35;10.40;;;2.30;99.90;;;;;;5071016;28;20040;-47
2024/01/06 03:26:33;;;;;;;13.57;9.30;;;2.30;99.90;;;;;;5063676;28;20095;-47
2024/01/06 03:28:59;;;;;;;15.02;9.73;;;2.30;99.90;;;;;;5063743;28;20541;-49
2024/01/06 03:31:25;;;;;;;15.57;10.48;;;2.30;99.90;;;;;;5063274;28;20403;-51
2024/01/06 03:33:54;;;;;;;16.48;11.05;;;2.30;99.90;;;;;;5063727;28;20659;-48
2024/01/06 03:36:20;;;;;;;14.80;10.05;;;2.30;99.90;;;;;;5064257;28;20454;-47
2024/01/06 03:38:45;;;;;;;17.20;11.38;;;2.30;99.90;;;;;;5059332;28;20321;-47
2024/01/06 03:41:11;;;;;;;17.65;11.75;;;2.30;99.90;;;;;;5059745;28;20040;-48
2024/01/06 03:43:37;;;;;;;18.67;11.45;;;2.20;99.90;;;;;;5067466;28;20036;-49
2024/01/06 03:46:03;;;;;;;18.20;11.88;;;2.20;99.90;;;;;;5063647;28;20417;-49
2024/01/06 03:48:28;;;;;;;15.60;11.70;;;2.20;99.90;;;;;;5062366;28;20422;-49
2024/01/06 03:50:54;;;;;;;17.08;12.18;;;2.20;99.90;;;;;;5064010;28;20406;-47
2024/01/06 03:53:20;;;;;;;20.15;12.63;;;2.30;99.90;;;;;;5058368;28;20522;-51
2024/01/06 03:55:45;;;;;;;18.98;11.98;;;2.20;99.90;;;;;;5059291;28;20040;-48
2024/01/06 03:58:11;;;;;;;17.52;12.38;;;2.10;99.90;;;;;;5063411;28;20040;-47
2024/01/06 04:00:37;;;;;;;17.42;11.75;;;2.20;99.90;;;;;;5063446;28;20045;-49
2024/01/06 04:03:03;;;;;;;16.88;11.65;;;2.20;99.90;;;;;;5051417;28;20243;-49
2024/01/06 04:05:29;;;;;;;16.40;11.82;;;2.20;99.90;;;;;;5063784;28;20136;-50
2024/01/06 04:07:54;;;;;;;15.27;11.27;;;2.20;99.90;;;;;;5062785;28;20078;-48
2024/01/06 04:10:20;;;;;;;15.38;12.10;;;2.20;99.90;;;;;;5059136;28;20051;-49
2024/01/06 04:12:46;;;;;;;16.75;11.82;;;2.10;99.90;;;;;;5061340;28;20383;-47
2024/01/06 04:15:11;;;;;;;16.58;11.88;;;2.20;99.90;;;;;;5058422;28;20426;-47
2024/01/06 04:17:37;;;;;;;16.33;11.88;;;2.20;99.90;;;;;;5062151;28;20048;-49
2024/01/06 04:20:04;;;;;;;17.00;11.70;;;2.10;99.90;;;;;;5058179;28;20170;-50
2024/01/06 04:22:29;;;;;;;16.17;11.93;;;2.10;99.90;;;;;;5025148;28;20135;-51
2024/01/06 04:24:55;;;;;;;16.15;12.30;;;2.10;99.90;;;;;;5062205;28;20117;-48
2024/01/06 04:27:21;;;;;;;16.38;11.55;;;2.20;99.90;;;;;;5058564;28;20072;-50
2024/01/06 04:29:47;;;;;;;17.73;11.27;;;2.10;99.90;;;;;;5063045;28;20040;-48
2024/01/06 04:32:12;;;;;;;16.55;10.80;;;2.20;99.90;;;;;;5062508;28;20123;-50
2024/01/06 04:34:38;;;;;;;19.33;10.98;;;2.20;99.90;;;;;;5063060;28;20143;-50
2024/01/06 04:37:04;;;;;;;15.98;11.50;;;2.20;99.90;;;;;;5062795;28;20133;-47
2024/01/06 04:39:29;;;;;;;15.65;11.00;;;2.20;99.90;;;;;;5063013;28;20048;-47
2024/01/06 04:41:55;;;;;;;22.38;12.35;;;2.20;99.90;;;;;;5063297;28;20055;-48
2024/01/06 04:44:22;;;;;;;15.80;10.90;;;2.20;99.90;;;;;;5058947;28;20072;-48
2024/01/06 04:46:47;;;;;;;14.80;11.23;;;2.20;99.90;;;;;;5060356;28;20041;-48
2024/01/06 04:49:13;;;;;;;15.63;11.02;;;2.20;99.90;;;;;;5063157;28;20043;-48
2024/01/06 04:51:39;;;;;;;16.40;11.27;;;2.20;99.90;;;;;;5062052;28;20139;-50
2024/01/06 04:54:04;;;;;;;15.23;11.93;;;2.20;99.90;;;;;;5060413;28;20040;-48
2024/01/06 04:56:30;;;;;;;15.40;11.35;;;2.20;99.90;;;;;;5055137;28;20048;-47
2024/01/06 04:58:57;;;;;;;18.95;10.70;;;2.20;99.90;;;;;;5060009;28;20414;-50
2024/01/06 05:01:24;;;;;;;14.48;10.80;;;2.20;99.90;;;;;;5061712;28;20419;-47
2024/01/06 05:03:49;;;;;;;14.98;11.18;;;2.20;99.90;;;;;;5062367;28;20040;-50
2024/01/06 05:06:15;;;;;;;14.07;10.10;;;2.30;99.90;;;;;;5062624;28;20047;-48
2024/01/06 05:08:44;;;;;;;16.52;11.10;;;2.30;99.90;;;;;;5063085;28;20091;-49
2024/01/06 05:11:10;;;;;;;15.43;10.32;;;2.30;99.90;;;;;;5063054;28;20573;-48
2024/01/06 05:13:37;;;;;;;16.77;10.63;;;2.20;99.90;;;;;;5062509;28;20049;-54
2024/01/06 05:16:03;;;;;;;14.75;10.82;;;2.30;99.90;;;;;;5063355;28;20033;-48
2024/01/06 05:18:28;;;;;;;15.43;10.32;;;2.30;99.90;;;;;;5059438;28;20049;-51
2024/01/06 05:20:55;;;;;;;17.23;10.60;;;2.30;99.90;;;;;;5061413;28;20105;-50
2024/01/06 05:23:21;;;;;;;17.00;10.82;;;2.30;99.90;;;;;;5062733;28;20212;-49
2024/01/06 05:25:46;;;;;;;15.43;10.27;;;2.20;99.90;;;;;;5061383;28;20036;-48
2024/01/06 05:28:12;;;;;;;18.45;10.25;;;2.30;99.90;;;;;;5066582;28;20501;-48
2024/01/06 05:30:38;;;;;;;14.88;10.85;;;2.30;99.90;;;;;;5062564;28;20114;-49
2024/01/06 05:33:04;;;;;;;14.15;10.25;;;2.30;99.90;;;;;;5065953;28;20040;-47
2024/01/06 05:35:29;;;;;;;15.82;10.32;;;2.30;99.90;;;;;;5062237;28;20048;-48
2024/01/06 05:37:56;;;;;;;15.25;10.20;;;2.30;99.90;;;;;;5066656;28;20032;-51
2024/01/06 05:40:21;;;;;;;14.75;9.90;;;2.40;99.90;;;;;;5062694;28;20593;-50
2024/01/06 05:42:47;;;;;;;13.98;10.25;;;2.30;99.90;;;;;;5062554;28;20062;-49
2024/01/06 05:45:13;;;;;;;13.75;9.90;;;2.30;99.90;;;;;;5064454;28;20446;-50
2024/01/06 05:47:39;;;;;;;14.98;9.68;;;2.40;99.90;;;;;;5069400;28;20032;-48
2024/01/06 05:50:05;;;;;;;13.32;9.10;;;2.40;99.90;;;;;;5065468;28;20032;-50
2024/01/06 05:52:31;;;;;;;13.43;9.55;;;2.40;99.90;;;;;;5062464;28;20044;-49
2024/01/06 05:54:58;;;;;;;13.70;10.00;;;2.40;99.90;;;;;;5065387;28;20036;-50
2024/01/06 05:57:24;;;;;;;12.80;9.88;;;2.40;99.90;;;;;;5062514;28;20608;-50
2024/01/06 05:59:49;;;;;;;14.27;9.38;;;2.40;99.90;;;;;;5062316;28;20048;-50
2024/01/06 06:02:15;;;;;;;13.25;9.30;;;2.40;99.90;;;;;;5062939;28;20102;-48
2024/01/06 06:04:41;;;;;;;13.52;9.90;;;2.30;99.90;;;;;;5061760;28;20037;-49
2024/01/06 06:07:06;;;;;;;12.40;9.48;;;2.40;99.90;;;;;;5063339;28;20413;-49
2024/01/06 06:09:34;;;;;;;11.02;9.00;;;2.40;99.90;;;;;;5050236;28;20101;-50
2024/01/06 06:12:00;;;;;;;12.40;8.77;;;2.40;99.90;;;;;;5061452;28;20044;-50
2024/01/06 06:14:26;;;;;;;11.88;9.20;;;2.40;99.90;;;;;;5062266;28;20773;-49
2024/01/06 06:16:51;;;;;;;14.43;10.07;;;2.40;99.90;;;;;;5063558;28;20667;-49
2024/01/06 06:19:18;;;;;;;11.65;9.60;;;2.40;99.90;;;;;;5062205;28;20087;-48
2024/01/06 06:21:44;;;;;;;12.85;9.65;;;2.40;99.90;;;;;;5063346;28;20040;-50
2024/01/06 06:24:10;;;;;;;15.23;10.73;;;2.40;99.90;;;;;;5061867;28;20350;-49
2024/01/06 06:26:36;;;;;;;13.55;9.63;;;2.40;99.90;;;;;;5061151;28;20044;-50
2024/01/06 06:29:02;;;;;;;12.48;10.10;;;2.50;99.90;;;;;;5061448;28;20051;-47
2024/01/06 06:31:28;;;;;;;14.05;9.82;;;2.40;99.90;;;;;;5062081;28;20036;-47
2024/01/06 06:33:53;;;;;;;13.52;10.20;;;2.50;99.90;;;;;;5060871;28;20044;-49
2024/01/06 06:36:19;;;;;;;14.02;10.30;;;2.50;99.90;;;;;;5060788;28;20047;-50
2024/01/06 06:38:45;;;;;;;15.02;10.55;;;2.40;99.90;;;;;;5062168;28;20037;-49
2024/01/06 06:41:11;;;;;;;16.55;11.02;;;2.50;99.90;;;;;;5061509;28;20040;-48
2024/01/06 06:43:37;;;;;;;14.05;11.32;;;2.50;99.90;;;;;;5062235;28;20036;-47
2024/01/06 06:46:03;;;;;;;13.80;11.27;;;2.50;99.90;;;;;;5062004;28;20119;-48
2024/01/06 06:48:29;;;;;;;12.63;10.68;;;2.50;99.90;;;;;;5061702;28;20546;-47
2024/01/06 06:50:55;;;;;;;14.13;10.77;;;2.50;99.90;;;;;;5061206;28;20045;-47
2024/01/06 06:53:20;;;;;;;12.73;10.32;;;2.50;99.90;;;;;;5061919;28;20079;-50
2024/01/06 06:55:47;;;;;;;16.67;12.05;;;2.50;99.90;;;;;;5060897;28;20051;-47
2024/01/06 06:58:13;;;;;;;13.13;10.85;;;2.50;99.90;;;;;;5061197;28;20040;-48
2024/01/06 07:00:39;;;;;;;18.23;12.30;;;2.50;99.90;;;;;;5060993;28;20043;-47
2024/01/06 07:03:05;;;;;;;14.52;12.05;;;2.50;99.90;;;;;;5060627;28;20364;-49
2024/01/06 07:05:30;;;;;;;16.98;12.45;;;2.50;99.90;;;;;;5061454;28;20036;-47
2024/01/06 07:07:56;;;;;;;18.60;11.90;;;2.90;99.90;;;;;;5060598;28;20127;-50
2024/01/06 07:10:22;;;;;;;18.52;12.50;;;2.60;99.90;;;;;;5031844;28;20050;-48
2024/01/06 07:12:48;;;;;;;18.20;12.70;;;2.60;99.90;;;;;;5059813;28;20036;-47
2024/01/06 07:15:14;;;;;;;18.63;13.10;;;2.60;99.90;;;;;;5060808;28;20156;-50
2024/01/06 07:17:39;;;;;;;17.67;12.73;;;2.50;99.90;;;;;;5059102;28;20037;-48
2024/01/06 07:20:09;;;;;;;16.10;13.23;;;2.60;99.90;;;;;;5056905;28;20459;-47
2024/01/06 07:22:35;;;;;;;17.00;13.57;;;2.40;99.90;;;;;;5060778;28;20546;-47
2024/01/06 07:25:01;;;;;;;17.98;12.93;;;2.60;99.90;;;;;;5061421;28;20042;-46
2024/01/06 07:27:27;;;;;;;20.23;12.68;;;2.50;99.90;;;;;;5059216;28;20492;-47
2024/01/06 07:29:53;;;;;;;17.02;13.45;;;2.60;99.90;;;;;;5060849;28;20044;-47
2024/01/06 07:32:19;;;;;;;16.55;13.30;;;2.60;99.90;;;;;;5060413;28;20036;-46
2024/01/06 07:34:45;;;;;;;18.10;13.75;;;2.50;99.90;;;;;;5057581;28;20554;-49
2024/01/06 07:37:10;;;;;;;20.70;13.90;;;2.50;99.90;;;;;;5060556;28;20228;-47
2024/01/06 07:39:36;;;;;;;16.88;13.10;;;2.50;99.90;;;;;;5060608;28;20093;-49
2024/01/06 07:42:02;;;;;;;21.15;14.50;;;2.50;99.90;;;;;;5061346;28;21116;-46
2024/01/06 07:44:28;;;;;;;20.38;13.77;;;2.60;99.90;;;;;;5059957;28;20055;-48
2024/01/06 07:46:54;;;;;;;19.63;14.07;;;2.50;99.90;;;;;;5059458;28;20032;-49
2024/01/06 07:49:20;;;;;;;19.30;13.70;;;2.60;99.90;;;;;;5059220;28;20068;-46
2024/01/06 07:51:46;;;;;;;19.67;14.55;;;2.60;99.90;;;;;;5047172;28;20411;-49
2024/01/06 07:54:11;;;;;;;21.88;14.20;;;2.70;99.90;;;;;;5059363;28;20252;-50
2024/01/06 07:56:38;;;;;;;19.40;14.85;;;2.50;99.90;;;;;;5061184;28;20547;-47
2024/01/06 07:59:04;;;;;;;21.75;14.85;;;2.70;99.90;;;;;;5060693;28;20423;-46
2024/01/06 08:01:30;;;;;;;19.30;14.20;;;2.70;99.90;;;;;;5058765;28;20052;-48
2024/01/06 08:03:56;;;;;;;19.90;14.20;;;2.70;99.90;;;;;;5059291;28;20268;-49
2024/01/06 08:06:21;;;;;;;21.48;15.32;;;2.60;99.90;;;;;;5059041;28;20041;-48
2024/01/06 08:08:47;;;;;;;22.08;16.50;;;2.70;99.90;;;;;;5059984;28;20036;-48
2024/01/06 08:11:13;;;;;;;21.05;15.93;;;2.70;99.90;;;;;;5047183;28;20270;-47
2024/01/06 08:13:39;;;;;;;21.15;15.38;;;2.70;99.90;;;;;;5060439;28;20418;-48
2024/01/06 08:16:05;;;;;;;22.70;15.55;;;2.70;99.90;;;;;;5048105;28;20036;-48
2024/01/06 08:18:31;;;;;;;23.42;16.70;;;2.70;99.90;;;;;;5059697;28;20772;-47
2024/01/06 08:20:57;;;;;;;20.55;15.55;;;2.70;99.90;;;;;;5058646;28;20070;-50
2024/01/06 08:23:22;;;;;;;21.50;14.60;;;2.70;99.90;;;;;;5060224;28;20044;-47
2024/01/06 08:25:48;;;;;;;17.75;13.75;;;2.70;99.90;;;;;;5059285;28;20037;-48
2024/01/06 08:28:18;;;;;;;20.88;16.35;;;2.70;99.90;;;;;;5058112;28;20029;-49
2024/01/06 08:30:44;;;;;;;18.10;14.40;;;2.70;99.90;;;;;;5058756;28;20479;-49
2024/01/06 08:33:10;;;;;;;20.63;15.23;;;2.60;99.90;;;;;;5059937;28;20037;-46
2024/01/06 08:35:40;;;;;;;22.58;15.23;;;2.70;99.90;;;;;;5058980;28;20465;-48
2024/01/06 08:38:08;;;;;;;19.45;14.38;;;2.70;99.90;;;;;;5059809;28;20041;-46
2024/01/06 08:40:35;;;;;;;17.98;14.32;;;2.70;99.90;;;;;;5059367;28;20036;-48
2024/01/06 08:43:01;;;;;;;18.98;14.55;;;2.70;99.90;;;;;;5057838;28;20211;-49
2024/01/06 08:45:27;;;;;;;18.05;13.90;;;2.80;99.90;;;;;;5058945;28;20072;-49
2024/01/06 08:47:53;;;;;;;21.42;14.70;;;2.70;99.90;;;;;;5059700;28;20036;-47
2024/01/06 08:50:19;;;;;;;21.48;14.52;;;2.70;99.90;;;;;;5059069;28;20036;-48
2024/01/06 08:52:45;;;;;;;19.67;14.85;;;2.70;99.90;;;;;;5057143;28;20512;-50
2024/01/06 08:55:10;;;;;;;19.60;14.30;;;3.00;99.90;;;;;;5058543;28;20531;-48
2024/01/06 08:57:36;;;;;;;17.38;13.77;;;2.70;99.90;;;;;;5055306;28;20147;-47
2024/01/06 09:00:04;;;;;;;19.70;14.52;;;2.80;99.90;;;;;;5053649;28;20059;-51
2024/01/06 09:02:29;;;;;;;19.65;15.32;;;2.70;99.90;;;;;;5055072;28;20040;-48
2024/01/06 09:04:55;;;;;;;20.23;13.60;;;2.70;99.90;;;;;;5057697;28;20044;-47
2024/01/06 09:07:21;;;;;;;18.13;13.98;;;2.70;99.90;;;;;;5056939;28;20263;-46
2024/01/06 09:09:46;;;;;;;18.65;13.07;;;2.70;99.90;;;;;;5060216;28;20056;-47
2024/01/06 09:12:12;;;;;;;19.10;14.23;;;2.70;99.90;;;;;;5060221;28;20474;-47
2024/01/06 09:14:38;;;;;;;18.73;14.27;;;3.00;99.90;;;;;;5056355;28;20037;-48
2024/01/06 09:17:04;;;;;;;17.52;13.38;;;2.80;99.90;;;;;;5057676;28;20067;-47
2024/01/06 09:19:30;;;;;;;21.08;14.88;;;2.80;99.90;;;;;;5053378;28;20488;-50
2024/01/06 09:21:56;;;;;;;16.52;13.23;;;2.70;99.90;;;;;;5033922;28;20045;-47
2024/01/06 09:24:22;;;;;;;19.83;12.70;;;2.80;99.90;;;;;;5057831;28;20068;-47
2024/01/06 09:26:50;;;;;;;19.20;13.45;;;2.80;99.90;;;;;;5059507;28;20554;-48
2024/01/06 09:29:16;;;;;;;19.90;14.07;;;2.80;99.90;;;;;;5059644;28;20033;-52
2024/01/06 09:31:43;;;;;;;17.40;12.88;;;2.80;99.90;;;;;;5059820;28;20041;-48
2024/01/06 09:34:12;;;;;;;18.38;13.23;;;2.80;99.90;;;;;;5059676;28;20040;-47
2024/01/06 09:36:38;;;;;;;19.10;13.02;;;2.80;99.90;;;;;;5059682;28;20041;-48
2024/01/06 09:39:04;;;;;;;17.63;13.75;;;2.80;99.90;;;;;;5060442;28;20041;-48
2024/01/06 09:41:30;;;;;;;19.58;14.23;;;2.80;99.90;;;;;;5059450;28;20076;-47
2024/01/06 09:43:56;;;;;;;15.30;12.68;;;2.80;99.90;;;;;;5058956;28;20037;-49
2024/01/06 09:46:29;;;;;;;17.20;12.20;;;2.90;99.90;;;;;;5060349;28;20095;-51
2024/01/06 09:48:56;;;;;;;18.45;13.85;;;2.80;99.90;;;;;;5060565;28;20032;-48
2024/01/06 09:51:23;;;;;;;17.65;12.57;;;2.90;99.90;;;;;;5059561;28;20049;-49
2024/01/06 09:54:09;;;;;;;16.73;13.15;;;2.90;99.90;;;;;;5058861;28;20457;-48
2024/01/06 09:56:35;;;;;;;16.30;12.40;;;2.90;99.90;;;;;;5058089;28;20056;-48
2024/01/06 09:59:02;;;;;;;17.55;13.48;;;2.90;99.90;;;;;;5060151;28;20059;-48
2024/01/06 10:01:27;;;;;;;16.77;12.38;;;2.90;99.90;;;;;;5057613;28;20048;-47
2024/01/06 10:03:53;;;;;;;18.67;12.85;;;2.90;99.90;;;;;;5059944;28;20032;-47
2024/01/06 10:06:20;;;;;;;18.80;13.55;;;2.90;99.90;;;;;;5060013;28;20033;-47
2024/01/06 10:08:50;;;;;;;17.45;13.07;;;2.90;99.90;;;;;;5060687;28;20406;-48
2024/01/06 10:11:17;;;;;;;20.10;13.07;;;2.90;99.90;;;;;;5058042;28;20036;-47
2024/01/06 10:13:42;;;;;;;15.55;12.27;;;2.90;99.90;;;;;;5061399;28;20040;-47
2024/01/06 10:16:09;;;;;;;17.48;12.63;;;2.90;99.90;;;;;;5061896;28;20356;-46
2024/01/06 10:18:35;;;;;;;16.33;12.88;;;2.90;99.90;;;;;;5062858;28;20123;-47
2024/01/06 10:21:08;;;;;;;17.58;13.60;;;2.90;99.90;;;;;;5062190;28;20651;-49
2024/01/06 10:23:34;;;;;;;16.40;12.45;;;2.90;99.90;;;;;;5062113;28;20602;-49
2024/01/06 10:26:00;;;;;;;18.80;13.77;;;2.90;99.90;;;;;;5060703;28;20155;-49
2024/01/06 10:28:25;;;;;;;15.68;12.45;;;2.90;99.90;;;;;;5061629;28;20103;-46
2024/01/06 10:30:55;;;;;;;17.25;13.65;;;2.90;99.90;;;;;;5061578;28;20559;-49
2024/01/06 10:33:25;;;;;;;16.67;12.93;;;2.90;99.90;;;;;;5058771;28;20155;-48
2024/01/06 10:35:52;;;;;;;16.52;12.98;;;2.90;99.90;;;;;;5058912;28;20131;-47
2024/01/06 10:38:18;;;;;;;15.60;12.88;;;2.90;99.90;;;;;;5059087;28;20078;-47
2024/01/06 10:41:07;;;;;;;19.48;13.43;;;2.90;99.90;;;;;;5060337;28;20036;-47
2024/01/06 10:43:43;;;;;;;22.45;14.38;;;2.90;99.90;;;;;;5059737;28;20043;-46
2024/01/06 10:46:10;;;;;;;19.42;13.05;;;2.90;99.90;;;;;;5062361;28;20113;-49
2024/01/06 10:48:44;;;;;;;16.55;13.25;;;2.90;99.90;;;;;;5060283;28;20028;-49
2024/01/06 10:51:14;;;;;;;19.17;14.20;;;2.90;99.90;;;;;;5059203;28;20137;-47
2024/01/06 10:53:41;;;;;;;17.83;13.10;;;2.90;99.90;;;;;;5058805;28;20534;-48
2024/01/06 10:56:09;;;;;;;15.88;12.55;;;2.90;99.90;;;;;;5060895;28;20093;-48
2024/01/06 10:58:37;;;;;;;17.67;13.75;;;2.90;99.90;;;;;;5058560;28;20040;-46
2024/01/06 11:01:03;;;;;;;21.63;14.33;;;2.90;99.90;;;;;;5055423;28;20502;-48
2024/01/06 11:03:29;;;;;;;17.77;13.55;;;2.90;99.90;;;;;;5057919;28;20514;-49
2024/01/06 11:05:57;;;;;;;18.85;13.90;;;3.00;99.90;;;;;;5062134;28;20083;-48
2024/01/06 11:08:25;;;;;;;17.90;13.85;;;2.90;99.90;;;;;;5062184;28;20045;-47
2024/01/06 11:10:51;;;;;;;21.02;13.38;;;2.90;99.90;;;;;;5057497;28;20743;-48
2024/01/06 11:13:22;;;;;;;17.85;12.77;;;2.90;99.90;;;;;;5052319;28;20041;-51
2024/01/06 11:15:52;;;;;;;18.17;13.60;;;2.90;99.90;;;;;;5051207;28;20055;-50
2024/01/06 11:18:38;;;;;;;16.33;12.32;;;2.90;99.90;;;;;;5057830;28;20048;-51
2024/01/06 11:21:24;;;;;;;17.33;13.45;;;2.90;99.90;;;;;;5048457;28;20074;-50
2024/01/06 11:24:20;;;;;;;16.52;11.60;;;2.80;99.90;;;;;;5058958;28;20044;-47
2024/01/06 11:26:55;;;;;;;16.20;11.88;;;2.90;99.90;;;;;;5051391;28;20044;-47
2024/01/06 11:29:21;;;;;;;17.83;11.00;;;3.00;99.90;;;;;;5054636;28;20041;-49
2024/01/06 11:32:24;;;;;;;15.82;11.30;;;3.00;99.90;;;;;;5055350;28;20033;-46
2024/01/06 11:34:55;;;;;;;12.95;9.77;;;3.10;99.90;;;;;;5054093;28;20051;-47
2024/01/06 11:37:36;;;;;;;12.43;10.35;;;3.00;99.90;;;;;;5052064;28;20044;-50
2024/01/06 11:40:02;;;;;;;11.57;9.15;;;3.00;99.90;;;;;;5058514;28;20303;-47
2024/01/06 11:42:35;;;;;;;10.95;8.70;;;2.90;99.90;;;;;;5048185;28;20036;-48
2024/01/06 11:45:07;;;;;;;12.32;9.00;;;2.90;99.90;;;;;;5053205;28;20049;-48
2024/01/06 11:47:38;;;;;;;12.88;8.68;;;2.90;99.90;;;;;;5047676;28;20040;-49
2024/01/06 11:50:04;;;;;;;12.48;9.13;;;2.90;99.90;;;;;;5060356;28;20461;-46
2024/01/06 11:52:31;;;;;;;13.13;9.32;;;2.90;99.90;;;;;;5061163;28;20114;-50
2024/01/06 11:54:58;;;;;;;11.90;9.32;;;2.90;99.90;;;;;;5059171;28;20138;-50
2024/01/06 11:57:27;;;;;;;12.80;9.70;;;2.90;99.90;;;;;;5061872;28;20048;-48
2024/01/06 11:59:53;;;;;;;12.90;8.35;;;3.00;99.90;;;;;;5057823;28;20581;-51
2024/01/06 12:02:20;;;;;;;11.38;8.15;;;3.00;99.90;;;;;;5059718;28;20494;-50
2024/01/06 12:04:53;;;;;;;9.40;7.75;;;2.90;99.90;;;;;;5048149;28;20566;-47
2024/01/06 12:07:20;;;;;;;12.27;8.82;;;2.90;99.90;;;;;;5059378;28;20033;-50
2024/01/06 12:09:50;;;;;;;9.40;7.70;;;2.90;99.90;;;;;;5059886;28;20067;-48
2024/01/06 12:12:17;;;;;;;9.57;7.85;;;2.90;99.90;;;;;;5059546;28;20517;-50
2024/01/06 12:14:43;;;;;;;12.05;8.85;;;2.80;99.90;;;;;;5060276;28;20040;-49
2024/01/06 12:17:10;;;;;;;12.77;8.70;;;3.00;99.90;;;;;;5058810;28;20047;-48
2024/01/06 12:19:35;;;;;;;10.55;8.18;;;2.90;99.90;;;;;;5060201;28;20119;-47
2024/01/06 12:22:02;;;;;;;10.65;7.38;;;2.90;99.90;;;;;;5060243;28;20036;-46
2024/01/06 12:24:29;;;;;;;10.73;8.20;;;2.80;99.90;;;;;;5059569;28;20511;-49
2024/01/06 12:26:58;;;;;;;11.25;8.13;;;2.90;99.90;;;;;;5059946;28;20040;-49
2024/01/06 12:29:31;;;;;;;;;;;2.80;99.90;;;;;;5060539;28;20407;-48
2024/01/06 12:31:59;;;;;;;10.75;7.63;;;2.80;99.90;;;;;;5060960;28;19917;-49
2024/01/06 12:34:26;;;;;;;12.32;8.80;;;2.70;99.90;;;;;;5060710;28;20522;-53
2024/01/06 12:36:55;;;;;;;10.50;8.20;;;2.70;99.90;;;;;;5059805;28;20518;-48
2024/01/06 12:39:21;;;;;;;10.05;7.78;;;2.70;99.90;;;;;;5057812;28;20130;-47